Alto, TX

10:10 AM CST on December 19, 2014 (GMT -0600)
Cherokee County | Change Station
CLOSE
Current Station
Airport
Location: Jacksonville,
Elevation: 676 ft
Nearby Weather Stations

Elev 676 ft 31.87 °N, 95.22 °W | Updated 15 minutes ago

Rain
Rain
48 °F
Feels Like 48 °F
N
10
Wind Variable Wind from NE

Today
High -- | Low -- °F
--% Chance of Precip.
Yesterday
High -- | Low -- °F
Precip. -- in
7:14 AM 5:20 PM
Waning Crescent, 7% visible
Pressure 30.19 in
Visibility 5.0 miles
Clouds Overcast 400 ft
Dew Point 47 °F
Humidity 98%
Rainfall 0.51 in
Snow Depth Not available.
UV 1 out of 12
Pollen .50 out of 12
Air Quality Not available.
Flu Activity Not available.
METAR KJSO 191555Z AUTO 05009KT 5SM BR OVC004 08/08 A3019 RMK AO2 T00880085

More Conditions Fewer Conditions

Pressure 30.19 in
Visibility 5.0 miles
Clouds Overcast 400 ft
Dew Point 47 °F
Humidity 98%
Rainfall 0.51 in
Snow Depth Not available.
UV 1 out of 12
Pollen .50 out of 12
Air Quality Not available.
Flu Activity Not available.
METAR KJSO 191555Z AUTO 05009KT 5SM BR OVC004 08/08 A3019 RMK AO2 T00880085

More Conditions Fewer Conditions

Nowcast | as of 8:16 am CST on December 19, 2014

Rain...with a few embedded thunderstorms...continue to spread northeast across the region. Rainfall rates of up to a half an inch per hour can be expected across the area.

×

10-Day Weather Forecast

Almanac

Astronomy

Dec. 19, 2014 Rise Set
Actual Time
Civil Twilight
Nautical Twilight
Astronomical Twilight
Moon
Length of Visible Light
Length of Day
Tomorrow will be .
, % of the Moon is Illuminated

Today's Extremes

State Highs State Lows

Community

WunderPhotos

Upload Photos

1,779,005 photos uploaded!

WunderBlogs® & News

Nearby

Air Quality

  Air Quality AQ Index Pollutant
Not available.

Snow Depth

Station Depth Elevation

Earthquake Activity

City Distance Mag. Time & Date
Minimum magnitude displayed is 2.5.

Coastal Water Temperatures

Place Temperature

Nearby Weather Stations